Time;durP1;ratioP1;P1;durP2;ratioP2;P2;SDS_P1;SDS_P2;PMS_P1;PMS_P2;Temp;Humidity;BMP_temperature;BMP_pressure;BME280_temperature;BME280_humidity;BME280_pressure;Samples;Min_cycle;Max_cycle;Signal;HPM_P1;HPM_P2
2022/04/22 00:01:16;;;;;;;44.17;28.33;;;10.10;99.90;;;;;;5113945;28;20253;-51
2022/04/22 00:03:45;;;;;;;43.67;27.10;;;10.10;99.90;;;;;;5113413;28;20231;-51
2022/04/22 00:06:14;;;;;;;41.33;27.40;;;10.10;99.90;;;;;;5114463;28;20207;-51
2022/04/22 00:08:42;;;;;;;44.03;28.20;;;10.10;99.90;;;;;;5114683;28;20196;-52
2022/04/22 00:13:58;;;;;;;40.57;26.57;;;10.10;99.90;;;;;;5113941;28;20322;-51
2022/04/22 00:16:27;;;;;;;43.43;27.20;;;10.00;99.90;;;;;;5114308;28;20675;-51
2022/04/22 00:18:55;;;;;;;42.67;27.50;;;10.00;99.90;;;;;;5114278;28;20239;-51
2022/04/22 00:21:24;;;;;;;40.83;26.67;;;10.10;99.90;;;;;;5116400;27;20204;-51
2022/04/22 00:23:52;;;;;;;40.20;25.00;;;10.20;99.90;;;;;;5134020;27;20222;-52
2022/04/22 00:26:22;;;;;;;37.63;25.70;;;10.20;99.90;;;;;;5135171;27;20723;-51
2022/04/22 00:28:51;;;;;;;38.10;25.53;;;10.20;99.90;;;;;;5133014;27;20199;-51
2022/04/22 00:31:20;;;;;;;39.33;26.43;;;10.10;99.90;;;;;;5134452;27;20209;-51
2022/04/22 00:33:48;;;;;;;35.57;24.40;;;10.10;99.90;;;;;;5116597;27;20603;-51
2022/04/22 00:36:16;;;;;;;34.47;23.10;;;10.00;99.90;;;;;;5113362;28;20203;-51
2022/04/22 00:38:44;;;;;;;35.90;23.33;;;10.00;99.90;;;;;;5113530;28;20300;-52
2022/04/22 00:41:12;;;;;;;35.57;23.47;;;10.00;99.90;;;;;;5113595;28;20664;-51
2022/04/22 00:43:44;;;;;;;35.13;22.97;;;10.10;99.90;;;;;;5113464;28;20272;-51
2022/04/22 00:46:13;;;;;;;32.93;22.67;;;10.10;99.90;;;;;;5113617;28;20227;-51
2022/04/22 00:48:41;;;;;;;31.73;22.23;;;10.10;99.90;;;;;;5113750;28;20787;-51
2022/04/22 00:51:11;;;;;;;30.93;21.97;;;10.10;99.90;;;;;;5113493;28;20204;-52
2022/04/22 00:53:42;;;;;;;33.93;21.97;;;10.10;99.90;;;;;;5113355;28;20253;-51
2022/04/22 00:56:11;;;;;;;34.67;22.70;;;10.20;99.90;;;;;;5113850;28;20207;-51
2022/04/22 00:58:43;;;;;;;28.77;20.97;;;10.20;99.90;;;;;;5113409;28;20211;-51
2022/04/22 01:01:12;;;;;;;31.37;21.87;;;10.10;99.90;;;;;;5113520;28;20188;-51
2022/04/22 01:09:46;;;;;;;32.07;21.07;;;10.10;99.90;;;;;;5111980;28;20280;-51
2022/04/22 01:12:00;;;;;;;30.73;22.23;;;10.20;99.90;;;;;;5112770;28;20260;-51
2022/04/22 01:14:31;;;;;;;30.50;20.53;;;10.00;99.90;;;;;;5112491;28;20225;-51
2022/04/22 01:17:00;;;;;;;31.03;21.80;;;10.00;99.90;;;;;;5113669;28;20212;-51
2022/04/22 01:19:29;;;;;;;31.07;21.80;;;10.00;99.90;;;;;;5112876;28;20207;-51
2022/04/22 01:21:58;;;;;;;31.87;21.03;;;10.00;99.90;;;;;;5112622;28;20635;-51
2022/04/22 01:24:27;;;;;;;31.10;20.77;;;10.10;99.90;;;;;;5112882;28;20589;-51
2022/04/22 01:26:55;;;;;;;27.63;20.77;;;10.10;99.90;;;;;;5113425;28;20673;-51
2022/04/22 01:29:24;;;;;;;29.33;20.33;;;10.00;99.90;;;;;;5111703;28;20211;-51
2022/04/22 01:31:52;;;;;;;27.07;19.23;;;10.00;99.90;;;;;;5112427;28;20261;-51
2022/04/22 01:34:21;;;;;;;28.50;20.10;;;10.00;99.90;;;;;;5112767;28;20602;-51
2022/04/22 01:36:49;;;;;;;27.23;20.20;;;10.00;99.90;;;;;;5111987;28;20680;-51
2022/04/22 01:39:18;;;;;;;26.60;19.30;;;10.00;99.90;;;;;;5112267;28;20723;-51
2022/04/22 01:41:46;;;;;;;27.03;20.07;;;10.00;99.90;;;;;;5112130;28;20210;-52
2022/04/22 01:44:14;;;;;;;27.00;20.10;;;10.00;99.90;;;;;;5112378;28;20220;-52
2022/04/22 01:46:42;;;;;;;26.40;19.50;;;10.00;99.90;;;;;;5112780;28;20209;-51
2022/04/22 01:49:11;;;;;;;28.57;20.03;;;10.00;99.90;;;;;;5112213;28;20217;-51
2022/04/22 01:51:39;;;;;;;28.23;19.77;;;10.00;99.90;;;;;;5112857;28;20211;-52
2022/04/22 01:54:07;;;;;;;27.20;19.67;;;10.00;99.90;;;;;;5111585;28;20268;-52
2022/04/22 01:56:36;;;;;;;25.60;19.60;;;9.90;99.90;;;;;;5112645;28;20209;-52
2022/04/22 01:59:05;;;;;;;34.57;21.30;;;9.80;99.90;;;;;;5112024;28;20603;-51
2022/04/22 02:01:33;;;;;;;31.37;21.13;;;9.80;99.90;;;;;;5104285;28;20216;-51
2022/04/22 02:04:01;;;;;;;30.20;21.27;;;9.80;99.90;;;;;;5091405;28;20228;-51
2022/04/22 02:06:29;;;;;;;26.87;20.27;;;9.80;99.90;;;;;;5092200;28;20212;-51
2022/04/22 02:08:57;;;;;;;28.70;21.20;;;9.80;99.90;;;;;;5097964;28;20865;-51
2022/04/22 02:11:25;;;;;;;31.60;22.40;;;9.80;99.90;;;;;;5112131;28;20203;-51
2022/04/22 02:13:55;;;;;;;29.93;22.03;;;9.80;99.90;;;;;;5111442;28;20226;-50
2022/04/22 02:16:23;;;;;;;32.03;23.27;;;9.80;99.90;;;;;;5112127;28;20637;-51
2022/04/22 02:18:51;;;;;;;29.63;21.73;;;9.80;99.90;;;;;;5112128;28;20223;-52
2022/04/22 02:21:21;;;;;;;30.50;22.63;;;9.80;99.90;;;;;;5111744;28;20833;-51
2022/04/22 02:23:49;;;;;;;30.20;22.90;;;9.80;99.90;;;;;;5111291;28;20227;-50
2022/04/22 02:26:17;;;;;;;30.93;22.63;;;9.80;99.90;;;;;;5112108;28;20257;-51
2022/04/22 02:28:45;;;;;;;29.17;21.67;;;9.80;99.90;;;;;;5111866;28;20200;-51
2022/04/22 02:31:14;;;;;;;28.93;22.10;;;9.80;99.90;;;;;;5111708;28;20585;-51
2022/04/22 02:33:42;;;;;;;33.10;23.03;;;9.80;99.90;;;;;;5111030;28;20637;-51
2022/04/22 02:36:16;;;;;;;29.43;22.40;;;9.80;99.90;;;;;;5111900;28;20257;-51
2022/04/22 02:38:44;;;;;;;31.73;22.63;;;9.80;99.90;;;;;;5111835;28;20211;-51
2022/04/22 02:46:44;;;;;;;29.10;22.77;;;9.70;99.90;;;;;;5111865;28;20316;-51
2022/04/22 02:49:12;;;;;;;31.20;23.00;;;9.70;99.90;;;;;;5110687;28;20254;-51
2022/04/22 02:51:40;;;;;;;30.83;24.00;;;9.70;99.90;;;;;;5115135;27;20206;-51
2022/04/22 02:54:08;;;;;;;33.63;24.53;;;9.70;99.90;;;;;;5131645;27;20706;-51
2022/04/22 02:56:37;;;;;;;33.00;24.40;;;9.80;99.90;;;;;;5132151;27;20663;-51
2022/04/22 02:59:06;;;;;;;33.13;25.10;;;9.80;99.90;;;;;;5131757;27;20282;-51
2022/04/22 03:01:34;;;;;;;33.10;24.10;;;9.80;99.90;;;;;;5132196;27;20212;-52
2022/04/22 03:04:05;;;;;;;29.90;23.53;;;9.70;99.90;;;;;;5111456;27;20239;-51
2022/04/22 03:06:33;;;;;;;31.67;24.07;;;9.70;99.90;;;;;;5111727;28;20203;-51
2022/04/22 03:09:01;;;;;;;35.70;25.20;;;9.80;99.90;;;;;;5111258;28;20255;-51
2022/04/22 03:11:29;;;;;;;34.00;25.17;;;9.80;99.90;;;;;;5111442;28;20209;-51
2022/04/22 03:13:57;;;;;;;33.47;25.57;;;9.80;99.90;;;;;;5110733;28;20632;-51
2022/04/22 03:16:27;;;;;;;33.57;24.80;;;9.80;99.90;;;;;;5111121;28;20631;-52
2022/04/22 03:18:55;;;;;;;32.00;24.53;;;9.90;99.90;;;;;;5110742;28;20637;-51
2022/04/22 03:21:24;;;;;;;33.47;26.03;;;9.90;99.90;;;;;;5111433;28;20203;-51
2022/04/22 03:23:53;;;;;;;31.40;24.63;;;9.90;99.90;;;;;;5110901;28;20260;-51
2022/04/22 03:26:21;;;;;;;32.70;24.87;;;9.90;99.90;;;;;;5111520;28;20255;-51
2022/04/22 03:28:55;;;;;;;32.47;24.53;;;9.90;99.90;;;;;;5110289;28;20661;-51
2022/04/22 03:31:23;;;;;;;35.87;24.90;;;9.80;99.90;;;;;;5110892;28;20218;-51
2022/04/22 03:33:52;;;;;;;33.30;25.40;;;9.90;99.90;;;;;;5110579;28;20376;-51
2022/04/22 03:36:20;;;;;;;31.80;24.27;;;9.90;99.90;;;;;;5110961;28;20262;-52
2022/04/22 03:38:52;;;;;;;29.87;23.43;;;9.90;99.90;;;;;;5111145;28;20715;-51
2022/04/22 03:41:20;;;;;;;30.97;23.93;;;9.80;99.90;;;;;;5111376;28;20208;-51
2022/04/22 03:43:48;;;;;;;29.50;23.13;;;9.90;99.90;;;;;;5110718;28;20216;-51
2022/04/22 03:46:16;;;;;;;29.60;23.23;;;9.90;99.90;;;;;;5110981;28;20200;-52
2022/04/22 03:48:45;;;;;;;31.63;23.40;;;9.90;99.90;;;;;;5111132;28;20290;-51
2022/04/22 03:51:13;;;;;;;31.23;22.63;;;9.90;99.90;;;;;;5110826;28;20211;-51
2022/04/22 03:53:41;;;;;;;29.50;23.40;;;9.90;99.90;;;;;;5109985;28;20231;-51
2022/04/22 03:58:57;;;;;;;33.80;23.23;;;9.90;99.90;;;;;;5110119;28;20268;-51
2022/04/22 04:01:26;;;;;;;30.30;22.93;;;9.90;99.90;;;;;;5113292;28;20200;-51
2022/04/22 04:03:54;;;;;;;33.40;23.47;;;9.90;99.90;;;;;;5114206;28;20311;-51
2022/04/22 04:06:23;;;;;;;30.57;22.37;;;10.00;99.90;;;;;;5114661;28;20709;-51
2022/04/22 04:17:03;;;;;;;30.67;23.00;;;9.90;99.90;;;;;;5070962;28;20293;-51
2022/04/22 04:25:02;;;;;;;31.83;23.07;;;9.90;99.90;;;;;;5114014;28;20229;-51
2022/04/22 04:27:31;;;;;;;31.53;23.30;;;9.90;99.90;;;;;;5113929;28;20249;-51
2022/04/22 04:29:59;;;;;;;31.20;23.03;;;9.90;99.90;;;;;;5113319;28;20588;-51
2022/04/22 04:32:28;;;;;;;28.70;21.67;;;9.90;99.90;;;;;;5113451;28;20219;-51
2022/04/22 04:34:56;;;;;;;30.27;23.10;;;10.00;99.90;;;;;;5113971;28;20258;-50
2022/04/22 04:37:24;;;;;;;29.93;22.83;;;9.90;99.90;;;;;;5114077;28;20203;-50
2022/04/22 04:39:55;;;;;;;31.23;23.47;;;9.90;99.90;;;;;;5113982;28;20227;-51
2022/04/22 04:42:26;;;;;;;30.27;23.00;;;9.80;99.90;;;;;;5113377;28;20256;-50
2022/04/22 04:44:56;;;;;;;33.03;23.93;;;9.90;99.90;;;;;;5112421;28;20765;-50
2022/04/22 04:47:24;;;;;;;31.77;22.27;;;9.90;99.90;;;;;;5114132;28;20207;-51
2022/04/22 04:49:52;;;;;;;33.40;23.23;;;9.90;99.90;;;;;;5113778;28;20203;-51
2022/04/22 04:52:20;;;;;;;30.43;22.20;;;9.80;99.90;;;;;;5113582;28;20557;-49
2022/04/22 04:54:52;;;;;;;31.30;22.93;;;9.90;99.90;;;;;;5113833;28;20231;-51
2022/04/22 04:57:20;;;;;;;30.77;22.73;;;9.90;99.90;;;;;;5113397;28;20268;-51
2022/04/22 04:59:48;;;;;;;30.27;22.77;;;10.00;99.90;;;;;;5113930;28;20568;-51
2022/04/22 05:02:18;;;;;;;31.43;22.83;;;9.90;99.90;;;;;;5113274;28;20211;-51
2022/04/22 05:04:46;;;;;;;31.23;23.03;;;10.00;99.90;;;;;;5113646;28;20311;-51
2022/04/22 05:07:14;;;;;;;31.83;23.53;;;10.00;99.90;;;;;;5113396;28;20199;-51
2022/04/22 05:09:42;;;;;;;29.33;23.27;;;10.10;99.90;;;;;;5113452;28;20672;-51
2022/04/22 05:12:11;;;;;;;30.30;22.90;;;10.10;99.90;;;;;;5111770;28;20627;-50
2022/04/22 05:14:39;;;;;;;33.03;23.93;;;10.10;99.90;;;;;;5112867;28;20278;-51
2022/04/22 05:17:07;;;;;;;32.43;23.00;;;10.00;99.90;;;;;;5113187;28;20203;-50
2022/04/22 05:19:37;;;;;;;30.17;23.00;;;10.00;99.90;;;;;;5113195;27;20216;-51
2022/04/22 05:22:05;;;;;;;33.47;23.47;;;10.00;99.90;;;;;;5112679;28;20281;-51
2022/04/22 05:24:35;;;;;;;31.70;20.83;;;10.00;99.90;;;;;;5112960;28;20223;-50
2022/04/22 05:27:04;;;;;;;33.73;24.33;;;10.10;99.90;;;;;;5113042;28;20208;-50
2022/04/22 05:35:05;;;;;;;32.43;24.13;;;10.00;99.90;;;;;;5098420;28;20231;-49
2022/04/22 05:37:47;;;;;;;32.60;24.87;;;10.00;99.90;;;;;;5112218;28;20207;-50
2022/04/22 05:40:17;;;;;;;30.37;23.73;;;10.10;99.90;;;;;;5112998;28;20212;-50
2022/04/22 05:42:50;;;;;;;30.10;23.93;;;10.10;99.90;;;;;;5111832;28;20634;-50
2022/04/22 05:45:19;;;;;;;32.00;23.83;;;10.10;99.90;;;;;;5111424;28;20228;-50
2022/04/22 05:47:47;;;;;;;32.03;25.07;;;10.10;99.90;;;;;;5112349;28;20203;-50
2022/04/22 05:50:18;;;;;;;33.90;24.93;;;10.10;99.90;;;;;;5112631;28;20664;-50
2022/04/22 05:52:46;;;;;;;31.70;23.93;;;10.20;99.90;;;;;;5111371;27;20279;-50
2022/04/22 05:55:16;;;;;;;32.97;25.20;;;10.20;99.90;;;;;;5112143;28;20269;-50
2022/04/22 05:57:46;;;;;;;37.80;26.80;;;10.20;99.90;;;;;;5112328;28;20229;-50
2022/04/22 06:00:16;;;;;;;32.10;23.07;;;10.20;99.90;;;;;;5112085;28;20646;-51
2022/04/22 06:02:45;;;;;;;34.90;24.53;;;10.30;99.90;;;;;;5111786;28;20203;-50
2022/04/22 06:05:15;;;;;;;33.87;24.87;;;10.30;99.90;;;;;;5111118;28;20733;-50
2022/04/22 06:07:45;;;;;;;34.87;26.13;;;10.30;99.90;;;;;;5112329;28;20624;-50
2022/04/22 06:10:32;;;;;;;32.53;25.47;;;10.30;99.90;;;;;;5112510;28;20191;-50
2022/04/22 06:13:00;;;;;;;32.27;24.10;;;10.30;99.90;;;;;;5112055;28;20207;-50
2022/04/22 06:15:29;;;;;;;33.67;25.33;;;10.30;99.90;;;;;;5111857;28;20227;-50
2022/04/22 06:17:58;;;;;;;34.80;25.27;;;10.30;99.90;;;;;;5112231;28;20211;-50
2022/04/22 06:20:26;;;;;;;30.60;24.03;;;10.40;99.90;;;;;;5111800;27;20223;-50
2022/04/22 06:22:56;;;;;;;30.47;21.67;;;10.40;99.90;;;;;;5110693;28;20211;-50
2022/04/22 06:25:24;;;;;;;29.67;22.80;;;10.50;99.90;;;;;;5111620;28;20231;-50
2022/04/22 06:27:52;;;;;;;33.03;22.97;;;10.40;99.90;;;;;;5111847;28;20261;-50
2022/04/22 06:30:22;;;;;;;28.97;21.97;;;10.60;99.90;;;;;;5111558;28;20276;-50
2022/04/22 06:32:52;;;;;;;30.47;23.13;;;10.70;99.90;;;;;;5111149;28;20215;-50
2022/04/22 06:35:21;;;;;;;30.90;23.33;;;10.70;99.90;;;;;;5111477;28;20253;-51
2022/04/22 06:37:51;;;;;;;29.13;22.10;;;10.80;99.90;;;;;;5111468;28;20235;-51
2022/04/22 06:45:54;;;;;;;28.37;20.77;;;10.80;99.90;;;;;;5100556;28;20203;-51
2022/04/22 06:48:25;;;;;;;27.50;20.83;;;10.90;99.90;;;;;;5112048;28;20211;-51
2022/04/22 06:51:12;;;;;;;30.10;23.50;;;11.00;99.90;;;;;;5112031;28;20194;-50
2022/04/22 06:53:42;;;;;;;27.43;22.33;;;11.00;99.90;;;;;;5111356;28;20310;-50
2022/04/22 06:56:13;;;;;;;28.33;22.50;;;11.30;99.90;;;;;;5111859;28;20203;-50
2022/04/22 06:58:43;;;;;;;27.87;21.83;;;11.60;99.90;;;;;;5111866;28;20249;-50
2022/04/22 07:01:11;;;;;;;26.87;22.30;;;12.30;99.90;;;;;;5106321;28;21106;-50
2022/04/22 07:04:00;;;;;;;27.00;22.70;;;12.60;99.90;;;;;;5099046;28;20235;-51
2022/04/22 07:06:29;;;;;;;26.60;22.10;;;13.20;99.90;;;;;;5091100;28;20200;-51
2022/04/22 07:08:58;;;;;;;28.70;23.13;;;13.70;99.90;;;;;;5104646;28;20763;-50
2022/04/22 07:11:29;;;;;;;24.37;21.20;;;13.60;99.90;;;;;;5111096;28;20203;-50
2022/04/22 07:13:59;;;;;;;25.20;22.03;;;13.60;99.90;;;;;;5110853;28;20632;-51
2022/04/22 07:16:27;;;;;;;26.17;21.90;;;13.70;99.90;;;;;;5111303;28;20296;-50
2022/04/22 07:18:57;;;;;;;25.63;21.83;;;13.50;99.90;;;;;;5110804;28;20543;-50
2022/04/22 07:21:26;;;;;;;26.73;21.50;;;13.30;99.90;;;;;;5110728;28;20599;-51
2022/04/22 07:23:57;;;;;;;29.00;21.07;;;13.20;99.90;;;;;;5110008;28;20223;-51
2022/04/22 07:26:27;;;;;;;27.40;22.00;;;13.00;99.90;;;;;;5111142;28;20237;-50
2022/04/22 07:28:59;;;;;;;25.73;22.00;;;13.00;99.90;;;;;;5112106;28;20290;-50
2022/04/22 07:31:31;;;;;;;26.13;21.87;;;12.70;99.90;;;;;;5111684;28;20212;-50
2022/04/22 07:34:00;;;;;;;26.97;22.53;;;12.70;99.90;;;;;;5110626;28;20621;-51
2022/04/22 07:36:29;;;;;;;28.23;23.53;;;12.70;99.90;;;;;;5114048;28;20252;-51
2022/04/22 07:38:57;;;;;;;30.23;23.97;;;12.80;99.90;;;;;;5115200;28;20202;-51
2022/04/22 07:41:29;;;;;;;27.33;22.87;;;12.90;99.90;;;;;;5105447;28;20219;-51
2022/04/22 07:46:48;;;;;;;28.03;20.57;;;13.50;99.90;;;;;;5114305;28;20196;-51
2022/04/22 07:49:20;;;;;;;29.40;22.23;;;13.30;99.90;;;;;;5114640;28;20281;-51
2022/04/22 07:51:50;;;;;;;29.03;23.63;;;12.80;99.90;;;;;;5113487;28;20267;-50
2022/04/22 07:54:24;;;;;;;31.40;23.90;;;12.70;99.90;;;;;;5114919;28;20223;-50
2022/04/22 07:56:52;;;;;;;30.00;22.93;;;12.90;99.90;;;;;;5115217;28;20216;-50
2022/04/22 07:59:24;;;;;;;28.53;24.07;;;13.20;99.90;;;;;;5115154;28;20208;-51
2022/04/22 08:01:52;;;;;;;27.97;23.27;;;13.10;99.90;;;;;;5114663;28;20219;-51
2022/04/22 08:04:20;;;;;;;31.67;24.33;;;13.20;99.90;;;;;;5114745;28;20798;-51
2022/04/22 08:06:50;;;;;;;28.77;23.93;;;13.20;99.90;;;;;;5114392;28;20199;-51
2022/04/22 08:09:38;;;;;;;31.00;24.47;;;13.10;99.90;;;;;;5114710;28;20283;-51
2022/04/22 08:12:08;;;;;;;30.77;25.07;;;13.00;99.90;;;;;;5100483;28;20238;-51
2022/04/22 08:14:38;;;;;;;30.00;24.40;;;13.20;99.90;;;;;;5109820;28;20232;-51
2022/04/22 08:17:06;;;;;;;30.23;22.87;;;13.00;99.90;;;;;;5114122;28;20560;-51
2022/04/22 08:19:34;;;;;;;29.30;22.57;;;12.80;99.90;;;;;;5114143;28;20203;-52
2022/04/22 08:22:04;;;;;;;30.07;23.30;;;12.80;99.90;;;;;;5113964;28;20277;-51
2022/04/22 08:24:32;;;;;;;30.23;21.93;;;12.80;99.90;;;;;;5113345;28;20732;-52
2022/04/22 08:27:00;;;;;;;26.60;20.60;;;12.80;99.90;;;;;;5105439;28;20204;-51
2022/04/22 08:29:28;;;;;;;25.97;20.87;;;12.90;99.90;;;;;;5104968;28;20208;-51
2022/04/22 08:31:57;;;;;;;27.23;21.83;;;13.00;99.90;;;;;;5113484;28;20207;-51
2022/04/22 08:34:26;;;;;;;24.73;19.50;;;13.30;99.90;;;;;;5113740;28;20768;-51
2022/04/22 08:36:54;;;;;;;28.33;21.00;;;13.80;99.90;;;;;;5113647;28;20204;-51
2022/04/22 08:39:22;;;;;;;25.33;19.50;;;14.00;99.90;;;;;;5113895;28;20257;-51
2022/04/22 08:41:51;;;;;;;25.20;19.83;;;14.00;99.90;;;;;;5113316;28;20219;-51
2022/04/22 08:44:22;;;;;;;24.73;20.27;;;13.80;99.90;;;;;;5113413;28;20622;-51
2022/04/22 08:52:25;;;;;;;24.70;18.57;;;13.30;99.90;;;;;;5122906;27;20195;-51
2022/04/22 08:54:55;;;;;;;22.63;18.63;;;13.40;99.90;;;;;;5133741;27;20230;-51
2022/04/22 08:57:23;;;;;;;24.60;19.13;;;13.30;99.90;;;;;;5134205;27;20226;-51
2022/04/22 08:59:51;;;;;;;22.13;17.67;;;13.60;99.90;;;;;;5128891;27;20241;-51
2022/04/22 09:02:20;;;;;;;21.37;17.23;;;13.60;99.90;;;;;;5113325;28;20220;-52
2022/04/22 09:04:50;;;;;;;21.47;16.93;;;13.70;99.90;;;;;;5113162;28;20223;-52
2022/04/22 09:07:21;;;;;;;18.77;15.30;;;13.50;99.90;;;;;;5113401;28;20253;-51
2022/04/22 09:09:50;;;;;;;19.60;15.70;;;13.50;99.90;;;;;;5113402;28;20216;-51
2022/04/22 09:12:21;;;;;;;18.63;15.37;;;13.60;99.90;;;;;;5112753;27;20252;-52
2022/04/22 09:14:51;;;;;;;20.23;15.67;;;13.90;99.90;;;;;;5113049;28;20227;-51
2022/04/22 09:17:23;;;;;;;21.80;17.30;;;14.10;99.90;;;;;;5113261;28;20200;-51
2022/04/22 09:19:54;;;;;;;19.30;16.07;;;14.40;99.90;;;;;;5113467;28;20212;-51
2022/04/22 09:22:23;;;;;;;18.37;15.73;;;14.60;99.90;;;;;;5112329;28;20672;-51
2022/04/22 09:24:53;;;;;;;26.07;18.27;;;14.90;99.90;;;;;;5112598;28;20231;-51
2022/04/22 09:27:31;;;;;;;22.20;18.20;;;15.30;99.90;;;;;;5112847;28;20264;-51
2022/04/22 09:30:00;;;;;;;24.30;18.77;;;15.10;99.90;;;;;;5113116;28;20207;-51
2022/04/22 09:32:30;;;;;;;21.17;17.77;;;15.00;99.90;;;;;;5112655;28;20207;-51
2022/04/22 09:35:08;;;;;;;24.97;18.90;;;15.00;99.90;;;;;;5112087;28;20224;-51
2022/04/22 09:43:26;;;;;;;22.73;18.43;;;15.20;99.90;;;;;;5112139;28;20227;-51
2022/04/22 09:45:54;;;;;;;21.40;16.53;;;15.30;99.90;;;;;;5112193;28;20200;-51
2022/04/22 09:48:23;;;;;;;20.47;17.53;;;15.20;99.90;;;;;;5112861;28;20206;-51
2022/04/22 09:50:55;;;;;;;22.53;17.50;;;15.20;99.90;;;;;;5101649;28;20208;-51
2022/04/22 09:53:32;;;;;;;22.17;17.63;;;15.20;99.90;;;;;;5105488;28;20719;-52
2022/04/22 09:56:07;;;;;;;21.97;19.10;;;15.10;99.90;;;;;;5111861;28;20299;-52
2022/04/22 09:58:35;;;;;;;24.57;19.90;;;14.90;99.90;;;;;;5112091;28;20207;-51
2022/04/22 10:01:05;;;;;;;27.90;22.57;;;14.90;99.90;;;;;;5112317;28;20262;-52
2022/04/22 10:03:36;;;;;;;27.33;20.60;;;15.10;99.90;;;;;;5111148;28;20710;-52
2022/04/22 10:06:06;;;;;;;25.80;20.43;;;15.10;99.90;;;;;;5112158;28;20233;-51
2022/04/22 10:08:36;;;;;;;24.80;19.40;;;15.10;99.90;;;;;;5111810;28;20233;-52
2022/04/22 10:11:06;;;;;;;22.93;19.07;;;14.90;99.90;;;;;;5112306;28;20775;-52
2022/04/22 10:13:41;;;;;;;25.23;19.77;;;14.90;99.90;;;;;;5111373;28;20222;-51
2022/04/22 10:16:10;;;;;;;26.40;20.60;;;15.00;99.90;;;;;;5111101;28;20668;-51
2022/04/22 10:18:39;;;;;;;24.87;20.77;;;15.10;99.90;;;;;;5111410;28;20256;-51
2022/04/22 10:21:09;;;;;;;26.77;19.30;;;15.30;99.90;;;;;;5111453;28;20208;-51
2022/04/22 10:23:46;;;;;;;24.03;19.83;;;15.30;99.90;;;;;;5111281;28;20322;-52
2022/04/22 10:26:14;;;;;;;22.53;19.37;;;15.20;99.90;;;;;;5111921;28;20199;-51
2022/04/22 10:28:45;;;;;;;24.23;21.07;;;15.30;99.90;;;;;;5112286;28;20279;-51
2022/04/22 10:31:14;;;;;;;23.73;19.80;;;15.30;99.90;;;;;;5111634;28;20211;-52
2022/04/22 10:33:44;;;;;;;25.73;20.57;;;15.30;99.90;;;;;;5092829;28;20286;-51
2022/04/22 10:36:15;;;;;;;26.23;22.07;;;15.40;99.90;;;;;;5091577;28;20200;-51
2022/04/22 10:38:46;;;;;;;25.43;20.40;;;15.20;99.90;;;;;;5090898;28;20192;-50
2022/04/22 10:41:17;;;;;;;21.85;16.13;;;14.90;99.90;;;;;;5089726;28;20204;-51
2022/04/22 10:47:13;;;;;;;22.83;20.10;;;15.00;99.90;;;;;;5090214;28;20330;-50
2022/04/22 10:49:38;;;;;;;21.67;19.13;;;14.90;99.90;;;;;;5110704;28;20733;-51
2022/04/22 10:52:13;;;;;;;21.43;18.77;;;14.90;99.90;;;;;;5110832;28;20255;-51
2022/04/22 10:55:12;;;;;;;23.53;20.03;;;14.90;99.90;;;;;;5110356;28;20748;-51
2022/04/22 10:57:42;;;;;;;23.63;21.07;;;15.00;99.90;;;;;;5111080;28;20261;-52
2022/04/22 11:00:31;;;;;;;26.93;22.03;;;15.20;99.90;;;;;;5110433;28;20245;-51
2022/04/22 11:03:11;;;;;;;26.83;22.00;;;15.20;99.90;;;;;;5110626;28;20786;-51
2022/04/22 11:05:43;;;;;;;25.43;22.07;;;15.30;99.90;;;;;;5110874;28;20196;-51
2022/04/22 11:08:32;;;;;;;24.67;19.25;;;15.20;99.90;;;;;;5111107;28;20187;-51
2022/04/22 11:11:13;;;;;;;24.55;21.52;;;15.40;99.90;;;;;;5089053;28;20203;-52
2022/04/22 11:13:43;;;;;;;24.67;21.97;;;15.20;99.90;;;;;;5090119;28;20720;-50
2022/04/22 11:16:17;;;;;;;27.63;22.10;;;15.30;99.90;;;;;;5091680;28;20208;-51
2022/04/22 11:19:05;;;;;;;25.15;21.98;;;15.30;99.90;;;;;;5110811;28;20698;-51
2022/04/22 11:21:43;;;;;;;30.87;23.60;;;15.40;99.90;;;;;;5110101;28;20208;-51
2022/04/22 11:24:17;;;;;;;26.80;22.65;;;15.00;99.90;;;;;;5110762;28;20263;-51
2022/04/22 11:26:45;;;;;;;26.83;22.48;;;15.20;99.90;;;;;;5109799;28;20210;-51
2022/04/22 11:29:15;;;;;;;26.33;21.67;;;15.20;99.90;;;;;;5111144;28;20549;-51
2022/04/22 11:31:56;;;;;;;25.63;21.85;;;15.40;99.90;;;;;;5110448;28;20268;-52
2022/04/22 11:35:00;;;;;;;25.60;22.47;;;15.60;99.90;;;;;;5110470;28;20228;-52
2022/04/22 11:37:28;;;;;;;26.80;22.07;;;15.30;99.90;;;;;;5110543;28;20248;-52
2022/04/22 11:39:58;;;;;;;25.52;19.85;;;15.30;99.90;;;;;;5110518;28;20261;-52
2022/04/22 11:42:27;;;;;;;24.00;20.35;;;15.80;99.90;;;;;;5109734;28;20200;-52
2022/04/22 11:45:06;;;;;;;22.48;18.83;;;16.00;99.90;;;;;;5105335;28;20249;-52
2022/04/22 11:47:34;;;;;;;25.25;18.30;;;15.90;99.90;;;;;;5098989;28;20273;-52
2022/04/22 11:50:03;;;;;;;23.55;20.60;;;15.80;99.90;;;;;;5089789;28;20262;-51
2022/04/22 11:52:31;;;;;;;24.83;21.42;;;15.80;99.90;;;;;;5089683;28;20204;-51
2022/04/22 11:55:07;;;;;;;21.25;18.98;;;16.00;99.90;;;;;;5089726;28;20228;-52
2022/04/22 11:57:37;;;;;;;23.65;20.58;;;16.10;99.90;;;;;;5089563;28;20326;-52
2022/04/22 12:05:43;;;;;;;22.90;20.50;;;16.20;99.90;;;;;;5090495;28;20212;-52
2022/04/22 12:08:13;;;;;;;24.05;20.48;;;16.00;99.90;;;;;;5089246;28;20205;-52
2022/04/22 12:10:46;;;;;;;21.50;19.20;;;15.90;99.90;;;;;;5089768;28;20208;-51
2022/04/22 12:13:15;;;;;;;26.05;21.95;;;15.90;99.90;;;;;;5088851;28;20272;-51
2022/04/22 12:15:48;;;;;;;21.85;19.52;;;16.00;99.90;;;;;;5096288;28;20586;-52
2022/04/22 12:18:34;;;;;;;23.10;20.63;;;16.40;99.90;;;;;;5089646;28;20192;-50
2022/04/22 12:21:04;;;;;;;20.90;18.70;;;16.60;99.90;;;;;;5090765;28;20288;-51
2022/04/22 12:23:38;;;;;;;20.00;17.95;;;16.80;99.90;;;;;;5093080;28;20232;-52
2022/04/22 12:26:14;;;;;;;22.70;20.00;;;16.80;99.90;;;;;;5092326;28;20680;-51
2022/04/22 12:28:59;;;;;;;20.90;18.73;;;16.50;99.90;;;;;;5093581;28;20648;-51
2022/04/22 12:31:29;;;;;;;20.40;17.90;;;16.50;99.90;;;;;;5092875;28;20839;-51
2022/04/22 12:33:59;;;;;;;19.90;17.80;;;16.50;99.90;;;;;;5093020;28;20219;-51
2022/04/22 12:36:27;;;;;;;20.13;18.02;;;16.70;99.90;;;;;;5092250;28;20205;-51
2022/04/22 12:38:56;;;;;;;21.63;18.40;;;16.90;99.90;;;;;;5093787;28;20883;-51
2022/04/22 12:41:25;;;;;;;21.50;19.20;;;17.10;99.90;;;;;;5092306;28;20736;-52
2022/04/22 12:43:55;;;;;;;25.38;19.67;;;16.90;99.90;;;;;;5102828;28;20227;-51
2022/04/22 12:52:14;;;;;;;22.40;19.35;;;16.90;99.90;;;;;;5112664;28;20230;-51
2022/04/22 12:54:45;;;;;;;22.33;18.70;;;16.50;99.90;;;;;;5113003;28;20219;-51
2022/04/22 12:57:23;;;;;;;18.63;16.70;;;16.50;99.90;;;;;;5112810;28;20207;-51
2022/04/22 12:59:54;;;;;;;21.40;18.35;;;16.50;99.90;;;;;;5112205;28;20203;-50
2022/04/22 13:02:28;;;;;;;21.05;17.60;;;16.60;99.90;;;;;;5113219;28;20208;-51
2022/04/22 13:04:59;;;;;;;19.92;17.38;;;16.50;99.90;;;;;;5113696;28;20231;-51
2022/04/22 13:07:40;;;;;;;19.15;17.13;;;16.60;99.90;;;;;;5113216;28;20543;-52
2022/04/22 13:10:09;;;;;;;21.60;18.00;;;16.40;99.90;;;;;;5113549;28;20196;-50
2022/04/22 13:12:40;;;;;;;20.23;17.90;;;16.30;99.90;;;;;;5092356;28;20204;-51
2022/04/22 13:15:10;;;;;;;20.42;17.35;;;16.50;99.90;;;;;;5113421;28;20281;-51
2022/04/22 13:17:40;;;;;;;20.00;17.45;;;16.60;99.90;;;;;;5113023;28;20321;-51
2022/04/22 13:20:10;;;;;;;18.35;16.55;;;16.60;99.90;;;;;;5113731;28;20204;-51
2022/04/22 13:22:38;;;;;;;20.35;18.25;;;16.40;99.90;;;;;;5105195;28;20340;-51
2022/04/22 13:25:11;;;;;;;19.60;17.52;;;16.30;99.90;;;;;;5111049;28;20692;-51
2022/04/22 13:27:41;;;;;;;20.35;17.50;;;16.30;99.90;;;;;;5112759;28;20708;-51
2022/04/22 13:30:10;;;;;;;18.55;16.38;;;16.30;99.90;;;;;;5112870;28;20188;-51
2022/04/22 13:32:40;;;;;;;20.40;17.63;;;16.60;99.90;;;;;;5111589;28;20303;-51
2022/04/22 13:35:10;;;;;;;19.00;17.02;;;16.50;99.90;;;;;;5112630;28;20219;-51
2022/04/22 13:37:38;;;;;;;19.38;17.20;;;16.50;99.90;;;;;;5112050;28;20602;-51
2022/04/22 13:40:07;;;;;;;21.10;17.58;;;16.50;99.90;;;;;;5112766;28;20617;-51
2022/04/22 13:42:35;;;;;;;23.30;19.88;;;16.40;99.90;;;;;;5111932;28;20200;-51
2022/04/22 13:53:23;;;;;;;22.35;19.40;;;16.00;99.90;;;;;;5105105;28;20260;-51
2022/04/22 13:55:51;;;;;;;21.45;19.20;;;16.00;99.90;;;;;;5091514;28;20253;-51
2022/04/22 13:58:20;;;;;;;21.45;19.15;;;15.90;99.90;;;;;;5091666;28;20207;-51
2022/04/22 14:00:50;;;;;;;22.60;20.30;;;15.80;99.90;;;;;;5090768;28;20211;-51
2022/04/22 14:03:19;;;;;;;20.27;18.10;;;15.70;99.90;;;;;;5090626;28;20306;-51